Terminal Aerodrome Forecast
Issued by NWS

Home | Current Version | Previous Version | Text Only | Print | Product List | Glossary On
Versions: 1 2 3 4 5 6 7 8 9 10 11 12 13 14 15 16
000
FTUS46 KMTR 022300
TAFSTS
TAF
KSTS 022322Z 0300/0324 17007KT P6SM FEW030 BKN050
     FM031100 VRB03KT 1/4SM FG FEW001
     FM031600 32003KT P6SM SKC
     FM032100 28008KT P6SM SKC=

USA.gov is the U.S. government's official web portal to all federal, state and local government web resources and services.